createdAt,value
2023-04-26T00:27:17.840Z,1014.39
2023-04-26T00:57:17.871Z,1014.51
2023-04-26T01:27:17.836Z,1014.63
2023-04-26T01:57:17.835Z,1014.77
2023-04-26T02:27:17.865Z,1014.76
2023-04-26T02:57:17.864Z,1014.69
2023-04-26T03:27:17.882Z,1014.88
2023-04-26T03:57:17.877Z,1014.98
2023-04-26T04:27:17.888Z,1015.14
2023-04-26T04:57:17.888Z,1015.42
2023-04-26T05:27:17.897Z,1015.6
2023-04-26T05:57:17.946Z,1015.87
2023-04-26T06:27:17.901Z,1016.07
2023-04-26T06:57:17.911Z,1016.13
2023-04-26T07:27:17.911Z,1016.05
2023-04-26T07:57:17.914Z,1016.11
2023-04-26T08:27:17.917Z,1016.29
2023-04-26T08:57:17.924Z,1016.16
2023-04-26T09:27:17.910Z,1016.11
2023-04-26T09:57:17.938Z,1015.84
2023-04-26T10:27:17.927Z,1015.78
2023-04-26T10:57:17.942Z,1015.73
2023-04-26T11:27:17.937Z,1015.49
2023-04-26T11:57:18.348Z,1015.43
2023-04-26T12:27:17.942Z,1015.33
2023-04-26T12:57:17.953Z,1015.25
2023-04-26T13:27:17.956Z,1015.04
2023-04-26T13:57:17.998Z,1015.16
2023-04-26T14:27:17.966Z,1015.04
2023-04-26T14:57:17.971Z,1014.94
2023-04-26T15:27:17.991Z,1015.07
2023-04-26T15:57:17.973Z,1014.79
2023-04-26T16:27:17.983Z,1014.72
2023-04-26T16:57:18.003Z,1014.76
2023-04-26T17:27:17.982Z,1014.79
2023-04-26T17:57:17.996Z,1015.07
2023-04-26T18:27:18.000Z,1015.32
2023-04-26T18:57:18.068Z,1015.53
2023-04-26T19:27:18.024Z,1015.65
2023-04-26T19:57:18.014Z,1015.7
2023-04-26T20:27:18.028Z,1015.83
2023-04-26T20:57:18.028Z,1015.93
2023-04-26T21:27:18.036Z,1015.97
2023-04-26T21:57:18.039Z,1016.05
2023-04-26T22:27:18.056Z,1016.26
2023-04-26T22:57:18.056Z,1016.43
2023-04-26T23:27:18.055Z,1016.41
2023-04-26T23:57:18.076Z,1016.63
